Odessit — 5IM479 — position and weather

sailwx.info

Track history (hours):
 
Tides and Currents Weather Stations Pressure Air Temp Water Temp Dewpoint Dewpoint Depression Visibility Wind Speed Wind Dir Waves Ship Positions

Odessit

Last reported at 2018-Apr-29 10:18 UTC. Time now 2018-Jun-21 14:03 UTC.
Position N 44°60' E 030°50'.
Warning: this ship's position is 53 days out of date.

Length 114 m; draft 3.9 m.

Type: Cargo ship. MMSI: 677037900.

Date/timePositionNaut miles runAvg speedWind from/ knotsBaromVisibWave heightAir tempDewpointWater temp
2018-Apr-29 10:18N 44°60' E 030°50'3 8.4
2018-Apr-29 09:55N 45°00' E 030°54'3 8.2
2018-Apr-29 09:30N 45°00' E 030°59'4 8.0
2018-Apr-29 09:00N 45°01' E 031°05'6 8.0
2018-Apr-29 08:13N 45°01' E 031°13'2 8.0
2018-Apr-29 07:56N 45°01' E 031°17'3 8.0
2018-Apr-29 07:30N 45°02' E 031°22'4 8.0
2018-Apr-29 06:57N 45°02' E 031°28'212 6.1
2018-Apr-27 20:01N 45°16' E 036°28'3 7.7
2018-Apr-27 19:40N 45°18' E 036°29'1 7.6
2018-Apr-27 19:30N 45°19' E 036°31'4 7.8
2018-Apr-27 19:00N 45°20' E 036°36'4 7.1
2018-Apr-27 18:30N 45°22' E 036°40'3 6.0
2018-Apr-27 18:00N 45°25' E 036°41'4 7.3
2018-Apr-27 17:30N 45°29' E 036°39'2 2.8
2018-Apr-27 16:57N 45°29' E 036°37'0 0.0
2018-Apr-27 16:06N 45°29' E 036°37'0 0.0
2018-Apr-27 15:42N 45°29' E 036°37'0 0.0
2018-Apr-27 15:06N 45°29' E 036°37'0 0.1
2018-Apr-27 15:00N 45°29' E 036°37'0 0.0
2018-Apr-27 13:12N 45°29' E 036°37'0 0.0
2018-Apr-27 12:54N 45°29' E 036°37'0 0.0
2018-Apr-27 12:30N 45°29' E 036°37'0 0.0
2018-Apr-27 11:57N 45°29' E 036°37'0 0.0
2018-Apr-27 11:24N 45°29' E 036°37'0 0.0
2018-Apr-27 10:57N 45°29' E 036°37'0 0.0
2018-Apr-27 09:24N 45°29' E 036°37'0 0.0
2018-Apr-27 08:57N 45°29' E 036°37'1 1.1
2018-Apr-27 08:27N 45°29' E 036°38'2 5.3
2018-Apr-27 08:01N 45°31' E 036°40'  
2018-Apr-23 14:10N 45°32' E 036°49'1 8.1
2018-Apr-23 14:00N 45°31' E 036°47'4 8.2
2018-Apr-23 13:30N 45°28' E 036°43'4 8.3
2018-Apr-23 13:00N 45°24' E 036°41'4 7.4
2018-Apr-23 12:30N 45°21' E 036°39'4 8.6
2018-Apr-23 12:00N 45°19' E 036°33'4 7.5
2018-Apr-23 11:30N 45°17' E 036°29'2 4.5
2018-Apr-23 10:58N 45°15' E 036°29'0 0.1
2018-Apr-23 10:25N 45°15' E 036°29'0 0.0
2018-Apr-23 09:58N 45°15' E 036°29'0 0.0
2018-Apr-23 09:28N 45°15' E 036°29'0 0.0
2018-Apr-23 08:58N 45°15' E 036°29'0 0.1
2018-Apr-23 08:30N 45°15' E 036°29'2 5.0
2018-Apr-23 08:00N 45°12' E 036°29'  
Track history (hours):
 
Tides and Currents Weather Stations Pressure Air Temp Water Temp Dewpoint Dewpoint Depression Visibility Wind Speed Wind Dir Waves Ship Positions

Odessit

Last reported at 2018-Apr-29 10:18 UTC. Time now 2018-Jun-21 14:03 UTC.
Position N 44°60' E 030°50'.
Warning: this ship's position is 53 days out of date.

Length 114 m; draft 3.9 m.

Type: Cargo ship. MMSI: 677037900.

Date/timePositionNaut miles runAvg speedWind from/ knotsBaromVisibWave heightAir tempDewpointWater temp
2018-Apr-29 10:18N 44°60' E 030°50'3 8.4
2018-Apr-29 09:55N 45°00' E 030°54'3 8.2
2018-Apr-29 09:30N 45°00' E 030°59'4 8.0
2018-Apr-29 09:00N 45°01' E 031°05'6 8.0
2018-Apr-29 08:13N 45°01' E 031°13'2 8.0
2018-Apr-29 07:56N 45°01' E 031°17'3 8.0
2018-Apr-29 07:30N 45°02' E 031°22'4 8.0
2018-Apr-29 06:57N 45°02' E 031°28'212 6.1
2018-Apr-27 20:01N 45°16' E 036°28'3 7.7
2018-Apr-27 19:40N 45°18' E 036°29'1 7.6
2018-Apr-27 19:30N 45°19' E 036°31'4 7.8
2018-Apr-27 19:00N 45°20' E 036°36'4 7.1
2018-Apr-27 18:30N 45°22' E 036°40'3 6.0
2018-Apr-27 18:00N 45°25' E 036°41'4 7.3
2018-Apr-27 17:30N 45°29' E 036°39'2 2.8
2018-Apr-27 16:57N 45°29' E 036°37'0 0.0
2018-Apr-27 16:06N 45°29' E 036°37'0 0.0
2018-Apr-27 15:42N 45°29' E 036°37'0 0.0
2018-Apr-27 15:06N 45°29' E 036°37'0 0.1
2018-Apr-27 15:00N 45°29' E 036°37'0 0.0
2018-Apr-27 13:12N 45°29' E 036°37'0 0.0
2018-Apr-27 12:54N 45°29' E 036°37'0 0.0
2018-Apr-27 12:30N 45°29' E 036°37'0 0.0
2018-Apr-27 11:57N 45°29' E 036°37'0 0.0
2018-Apr-27 11:24N 45°29' E 036°37'0 0.0
2018-Apr-27 10:57N 45°29' E 036°37'0 0.0
2018-Apr-27 09:24N 45°29' E 036°37'0 0.0
2018-Apr-27 08:57N 45°29' E 036°37'1 1.1
2018-Apr-27 08:27N 45°29' E 036°38'2 5.3
2018-Apr-27 08:01N 45°31' E 036°40'  
2018-Apr-23 14:10N 45°32' E 036°49'1 8.1
2018-Apr-23 14:00N 45°31' E 036°47'4 8.2
2018-Apr-23 13:30N 45°28' E 036°43'4 8.3
2018-Apr-23 13:00N 45°24' E 036°41'4 7.4
2018-Apr-23 12:30N 45°21' E 036°39'4 8.6
2018-Apr-23 12:00N 45°19' E 036°33'4 7.5
2018-Apr-23 11:30N 45°17' E 036°29'2 4.5
2018-Apr-23 10:58N 45°15' E 036°29'0 0.1
2018-Apr-23 10:25N 45°15' E 036°29'0 0.0
2018-Apr-23 09:58N 45°15' E 036°29'0 0.0
2018-Apr-23 09:28N 45°15' E 036°29'0 0.0
2018-Apr-23 08:58N 45°15' E 036°29'0 0.1
2018-Apr-23 08:30N 45°15' E 036°29'2 5.0
2018-Apr-23 08:00N 45°12' E 036°29'  

Dump ship's entire track history